Time;durP1;ratioP1;P1;durP2;ratioP2;P2;SDS_P1;SDS_P2;PMS_P1;PMS_P2;Temp;Humidity;BMP_temperature;BMP_pressure;BME280_temperature;BME280_humidity;BME280_pressure;Samples;Min_cycle;Max_cycle;Signal;HPM_P1;HPM_P2
2022/10/17 00:00:40;;;;;;;5.80;4.97;;;;;;;;;;5073606;28;20464;-77
2022/10/17 00:03:07;;;;;;;7.40;5.60;;;;;;;;;;5072941;28;20448;-78
2022/10/17 00:05:34;;;;;;;5.63;5.10;;;;;;;;;;5072759;28;21030;-77
2022/10/17 00:08:01;;;;;;;5.57;5.10;;;;;;;;;;5073189;28;20441;-77
2022/10/17 00:10:28;;;;;;;5.47;4.97;;;;;;;;;;5073125;28;20465;-77
2022/10/17 00:12:55;;;;;;;6.40;5.90;;;;;;;;;;5058300;28;20468;-77
2022/10/17 00:15:22;;;;;;;5.63;5.13;;;;;;;;;;5052528;28;20441;-78
2022/10/17 00:17:51;;;;;;;8.23;5.13;;;;;;;;;;5060161;28;20450;-77
2022/10/17 00:20:18;;;;;;;6.40;5.37;;;;;;;;;;5060609;28;20470;-77
2022/10/17 00:22:45;;;;;;;5.67;5.10;;;;;;;;;;5059577;28;20444;-77
2022/10/17 00:25:12;;;;;;;7.47;5.53;;;;;;;;;;5060636;28;20453;-77
2022/10/17 00:27:40;;;;;;;6.27;5.67;;;;;;;;;;5060936;28;20942;-76
2022/10/17 00:30:08;;;;;;;6.57;5.80;;;;;;;;;;5060726;28;20442;-76
2022/10/17 00:32:36;;;;;;;6.57;5.80;;;;;;;;;;5054826;28;20445;-76
2022/10/17 00:35:04;;;;;;;6.30;5.70;;;;;;;;;;5054971;28;20445;-76
2022/10/17 00:37:32;;;;;;;6.57;4.97;;;;;;;;;;5053052;28;20434;-77
2022/10/17 00:39:59;;;;;;;6.70;6.00;;;;;;;;;;5053950;28;20457;-77
2022/10/17 00:42:26;;;;;;;5.90;5.30;;;;;;;;;;5054519;28;20441;-76
2022/10/17 00:45:14;;;;;;;5.90;5.40;;;;;;;;;;5054810;28;20448;-77
2022/10/17 00:47:42;;;;;;;9.60;5.63;;;;;;;;;;5066543;28;20488;-77
2022/10/17 00:50:11;;;;;;;5.50;5.10;;;;;;;;;;5070841;28;20444;-77
2022/10/17 00:52:38;;;;;;;6.13;5.63;;;;;;;;;;5070612;28;20449;-77
2022/10/17 00:55:09;;;;;;;9.97;5.33;;;;;;;;;;5061925;28;20453;-77
2022/10/17 00:57:36;;;;;;;7.10;5.20;;;;;;;;;;5052146;28;20452;-77
2022/10/17 01:00:05;;;;;;;5.53;4.97;;;;;;;;;;5052074;28;20449;-76
2022/10/17 01:02:32;;;;;;;6.60;4.97;;;;;;;;;;5051348;28;20536;-77
2022/10/17 01:04:59;;;;;;;6.57;4.40;;;;;;;;;;5052092;28;20444;-77
2022/10/17 01:07:28;;;;;;;5.53;4.90;;;;;;;;;;5051844;28;20868;-77
2022/10/17 01:09:56;;;;;;;5.23;4.73;;;;;;;;;;5051612;28;20452;-77
2022/10/17 01:12:24;;;;;;;5.83;4.50;;;;;;;;;;5051676;28;20799;-77
2022/10/17 01:14:58;;;;;;;5.70;5.10;;;;;;;;;;5051272;28;20446;-78
2022/10/17 01:17:28;;;;;;;5.03;4.63;;;;;;;;;;5051793;28;20763;-77
2022/10/17 01:20:08;;;;;;;7.97;5.17;;;;;;;;;;5051413;28;20908;-77
2022/10/17 01:22:39;;;;;;;4.97;4.57;;;;;;;;;;5050914;28;20452;-77
2022/10/17 01:25:19;;;;;;;6.70;4.43;;;;;;;;;;5051151;28;20454;-77
2022/10/17 01:27:53;;;;;;;5.07;4.50;;;;;;;;;;5051538;28;20481;-77
2022/10/17 01:30:41;;;;;;;5.57;4.90;;;;;;;;;;5051137;28;20470;-78
2022/10/17 01:33:11;;;;;;;4.97;4.37;;;;;;;;;;5050782;28;20458;-77
2022/10/17 01:35:40;;;;;;;5.27;4.43;;;;;;;;;;5051242;28;20632;-76
2022/10/17 01:38:10;;;;;;;5.00;4.50;;;;;;;;;;5051136;28;20448;-77
2022/10/17 01:40:40;;;;;;;5.47;4.30;;;;;;;;;;5051274;28;20461;-76
2022/10/17 01:43:08;;;;;;;5.93;4.37;;;;;;;;;;5050187;28;20913;-76
2022/10/17 01:45:39;;;;;;;4.50;4.10;;;;;;;;;;5052030;28;20441;-77
2022/10/17 01:48:07;;;;;;;7.00;3.90;;;;;;;;;;5051640;28;20489;-77
2022/10/17 01:50:38;;;;;;;5.00;4.27;;;;;;;;;;5051918;28;20469;-77
2022/10/17 01:53:08;;;;;;;6.47;4.30;;;;;;;;;;5050980;28;20924;-77
2022/10/17 01:55:36;;;;;;;5.00;4.50;;;;;;;;;;5052718;28;20438;-77
2022/10/17 01:58:06;;;;;;;6.60;4.13;;;;;;;;;;5052069;28;20445;-77
2022/10/17 02:00:36;;;;;;;6.27;4.60;;;;;;;;;;5051528;28;20465;-76
2022/10/17 02:03:05;;;;;;;4.77;4.20;;;;;;;;;;5050137;28;20512;-77
2022/10/17 02:05:33;;;;;;;8.03;4.50;;;;;;;;;;5050740;28;20441;-77
2022/10/17 02:08:02;;;;;;;4.90;4.40;;;;;;;;;;5050592;28;20485;-76
2022/10/17 02:10:33;;;;;;;4.90;4.40;;;;;;;;;;5050501;28;20473;-77
2022/10/17 02:13:03;;;;;;;5.50;4.20;;;;;;;;;;5064748;28;20449;-76
2022/10/17 02:15:40;;;;;;;4.30;3.93;;;;;;;;;;5070635;28;20444;-77
2022/10/17 02:18:14;;;;;;;4.20;3.90;;;;;;;;;;5070627;28;20448;-77
2022/10/17 02:20:47;;;;;;;6.40;4.23;;;;;;;;;;5070222;28;20472;-79
2022/10/17 02:23:20;;;;;;;4.50;4.13;;;;;;;;;;5069994;28;20866;-77
2022/10/17 02:25:50;;;;;;;7.90;4.13;;;;;;;;;;5070260;28;20935;-77
2022/10/17 02:28:21;;;;;;;4.47;3.90;;;;;;;;;;5070401;28;20472;-77
2022/10/17 02:30:52;;;;;;;6.20;5.20;;;;;;;;;;5070204;28;20463;-76
2022/10/17 02:33:22;;;;;;;4.93;4.53;;;;;;;;;;5069108;28;20449;-76
2022/10/17 02:35:52;;;;;;;6.10;4.07;;;;;;;;;;5070026;28;20445;-77
2022/10/17 02:38:21;;;;;;;4.83;4.50;;;;;;;;;;5069702;28;20451;-76
2022/10/17 02:40:50;;;;;;;5.80;4.60;;;;;;;;;;5069836;28;20472;-76
2022/10/17 02:43:18;;;;;;;4.33;3.90;;;;;;;;;;5073103;28;20441;-77
2022/10/17 02:45:46;;;;;;;6.30;4.10;;;;;;;;;;5073874;28;20452;-77
2022/10/17 02:48:16;;;;;;;6.43;4.70;;;;;;;;;;5073835;28;20495;-77
2022/10/17 02:50:48;;;;;;;5.10;4.70;;;;;;;;;;5074214;28;20469;-77
2022/10/17 02:53:16;;;;;;;5.20;4.40;;;;;;;;;;5073488;28;20444;-77
2022/10/17 02:55:48;;;;;;;5.30;4.53;;;;;;;;;;5073893;28;20455;-78
2022/10/17 02:58:19;;;;;;;4.60;4.20;;;;;;;;;;5074327;28;20439;-77
2022/10/17 03:00:46;;;;;;;4.33;3.93;;;;;;;;;;5074199;28;20461;-77
2022/10/17 03:03:20;;;;;;;4.13;3.83;;;;;;;;;;5073071;28;20967;-77
2022/10/17 03:05:47;;;;;;;5.10;4.00;;;;;;;;;;5073475;28;20827;-78
2022/10/17 03:08:15;;;;;;;6.00;4.03;;;;;;;;;;5073455;28;20472;-77
2022/10/17 03:10:42;;;;;;;6.23;4.40;;;;;;;;;;5073490;28;20502;-77
2022/10/17 03:13:10;;;;;;;4.83;4.43;;;;;;;;;;5072716;28;20459;-77
2022/10/17 03:15:37;;;;;;;6.03;4.67;;;;;;;;;;5073326;28;20452;-77
2022/10/17 03:18:04;;;;;;;5.03;4.67;;;;;;;;;;5073582;28;20523;-76
2022/10/17 03:20:31;;;;;;;4.33;4.03;;;;;;;;;;5073264;28;20464;-76
2022/10/17 03:22:58;;;;;;;6.00;5.50;;;;;;;;;;5072661;28;20448;-77
2022/10/17 03:25:26;;;;;;;5.27;3.97;;;;;;;;;;5073383;28;20441;-76
2022/10/17 03:27:53;;;;;;;6.87;4.27;;;;;;;;;;5073343;28;20472;-77
2022/10/17 03:30:21;;;;;;;5.00;4.60;;;;;;;;;;5073247;28;21066;-76
2022/10/17 03:32:48;;;;;;;10.13;4.77;;;;;;;;;;5072442;28;20452;-76
2022/10/17 03:35:15;;;;;;;5.53;4.50;;;;;;;;;;5073454;28;20452;-77
2022/10/17 03:37:42;;;;;;;5.20;4.67;;;;;;;;;;5073744;28;20457;-77
2022/10/17 03:40:10;;;;;;;10.93;4.60;;;;;;;;;;5073308;28;20440;-77
2022/10/17 03:42:37;;;;;;;7.13;5.43;;;;;;;;;;5072386;28;20448;-76
2022/10/17 03:45:04;;;;;;;6.37;4.60;;;;;;;;;;5073258;28;20460;-77
2022/10/17 03:47:33;;;;;;;7.17;4.53;;;;;;;;;;5072612;28;20480;-77
2022/10/17 03:50:00;;;;;;;6.90;5.47;;;;;;;;;;5072727;28;20456;-77
2022/10/17 03:52:27;;;;;;;5.43;4.93;;;;;;;;;;5072466;28;20437;-76
2022/10/17 03:54:54;;;;;;;6.67;4.60;;;;;;;;;;5072392;28;20444;-77
2022/10/17 03:57:21;;;;;;;5.67;5.17;;;;;;;;;;5072988;28;20441;-76
2022/10/17 03:59:48;;;;;;;5.07;4.20;;;;;;;;;;5073022;28;20535;-77
2022/10/17 04:02:15;;;;;;;5.00;4.50;;;;;;;;;;5073237;28;20465;-76
2022/10/17 04:04:43;;;;;;;4.67;4.27;;;;;;;;;;5072751;28;20440;-77
2022/10/17 04:07:10;;;;;;;6.80;4.37;;;;;;;;;;5071959;28;20472;-78
2022/10/17 04:09:37;;;;;;;5.23;4.53;;;;;;;;;;5072514;28;20445;-77
2022/10/17 04:12:04;;;;;;;6.00;4.40;;;;;;;;;;5072275;28;20464;-76
2022/10/17 04:14:31;;;;;;;6.50;4.90;;;;;;;;;;5065539;28;20467;-78
2022/10/17 04:16:59;;;;;;;7.40;5.33;;;;;;;;;;5072570;28;20948;-77
2022/10/17 04:19:26;;;;;;;5.70;5.20;;;;;;;;;;5073052;28;20440;-77
2022/10/17 04:21:54;;;;;;;5.30;4.90;;;;;;;;;;5072460;28;20453;-78
2022/10/17 04:24:21;;;;;;;6.47;5.37;;;;;;;;;;5071901;28;20445;-77
2022/10/17 04:26:50;;;;;;;5.83;4.80;;;;;;;;;;5072522;28;20448;-78
2022/10/17 04:29:17;;;;;;;6.87;5.00;;;;;;;;;;5072647;28;20524;-78
2022/10/17 04:31:44;;;;;;;7.00;5.10;;;;;;;;;;5073020;28;20491;-76
2022/10/17 04:34:13;;;;;;;13.13;11.03;;;;;;;;;;5071834;28;20456;-77
2022/10/17 04:36:40;;;;;;;8.20;6.47;;;;;;;;;;5072169;28;20494;-76
2022/10/17 04:39:08;;;;;;;6.50;5.73;;;;;;;;;;5072247;28;20885;-77
2022/10/17 04:41:36;;;;;;;6.83;5.47;;;;;;;;;;5072113;28;20461;-76
2022/10/17 04:44:03;;;;;;;5.30;4.70;;;;;;;;;;5071258;28;20959;-77
2022/10/17 04:46:30;;;;;;;7.63;6.27;;;;;;;;;;5072001;28;20440;-77
2022/10/17 04:48:57;;;;;;;18.53;16.93;;;;;;;;;;5071583;28;20488;-76
2022/10/17 04:51:24;;;;;;;8.47;7.00;;;;;;;;;;5081739;28;20480;-76
2022/10/17 04:53:51;;;;;;;7.60;5.23;;;;;;;;;;5086139;28;20437;-76
2022/10/17 04:56:20;;;;;;;12.13;5.43;;;;;;;;;;5089136;28;20634;-76
2022/10/17 04:58:47;;;;;;;6.33;5.73;;;;;;;;;;5086539;28;20445;-77
2022/10/17 05:01:15;;;;;;;7.17;5.33;;;;;;;;;;5083451;28;20475;-77
2022/10/17 05:03:42;;;;;;;5.97;4.90;;;;;;;;;;5077112;28;20445;-78
2022/10/17 05:06:11;;;;;;;8.27;5.37;;;;;;;;;;5071249;28;20448;-77
2022/10/17 05:08:38;;;;;;;7.90;5.50;;;;;;;;;;5071394;28;20492;-77
2022/10/17 05:11:05;;;;;;;8.07;5.50;;;;;;;;;;5071486;28;20472;-78
2022/10/17 05:13:34;;;;;;;5.80;5.20;;;;;;;;;;5070826;28;20440;-77
2022/10/17 05:16:01;;;;;;;8.93;5.90;;;;;;;;;;5071322;28;20447;-77
2022/10/17 05:18:28;;;;;;;7.10;5.27;;;;;;;;;;5071232;28;20443;-77
2022/10/17 05:20:55;;;;;;;6.13;5.53;;;;;;;;;;5071221;28;20979;-76
2022/10/17 05:23:22;;;;;;;5.30;4.80;;;;;;;;;;5070953;28;20449;-78
2022/10/17 05:25:54;;;;;;;5.83;5.10;;;;;;;;;;5072086;28;20437;-78
2022/10/17 05:28:21;;;;;;;6.70;5.33;;;;;;;;;;5072260;28;20481;-78
2022/10/17 05:30:49;;;;;;;8.60;6.03;;;;;;;;;;5072202;28;20572;-79
2022/10/17 05:33:16;;;;;;;10.73;8.60;;;;;;;;;;5066763;28;20453;-78
2022/10/17 05:35:43;;;;;;;9.80;6.50;;;;;;;;;;5068067;28;20445;-79
2022/10/17 05:38:11;;;;;;;6.50;5.90;;;;;;;;;;5070654;28;20499;-77
2022/10/17 05:40:38;;;;;;;10.43;6.10;;;;;;;;;;5070650;28;20464;-78
2022/10/17 05:43:05;;;;;;;6.23;5.63;;;;;;;;;;5069543;28;20444;-77
2022/10/17 05:45:32;;;;;;;8.43;5.93;;;;;;;;;;5072281;28;20472;-77
2022/10/17 05:48:01;;;;;;;7.50;6.00;;;;;;;;;;5071558;28;20617;-77
2022/10/17 05:50:28;;;;;;;5.60;5.20;;;;;;;;;;5070944;28;20472;-78
2022/10/17 05:52:55;;;;;;;6.17;5.60;;;;;;;;;;5073784;28;20459;-76
2022/10/17 05:55:22;;;;;;;6.20;5.70;;;;;;;;;;5091739;28;20443;-76
2022/10/17 05:57:51;;;;;;;7.83;6.27;;;;;;;;;;5089990;28;20455;-76
2022/10/17 06:00:18;;;;;;;19.93;6.80;;;;;;;;;;5090034;28;20472;-76
2022/10/17 06:02:46;;;;;;;8.43;6.33;;;;;;;;;;5077624;28;20790;-77
2022/10/17 06:05:15;;;;;;;10.90;7.00;;;;;;;;;;5070962;28;20449;-77
2022/10/17 06:07:42;;;;;;;7.10;6.40;;;;;;;;;;5070476;28;20472;-78
2022/10/17 06:10:11;;;;;;;7.00;6.40;;;;;;;;;;5071461;28;20468;-77
2022/10/17 06:12:38;;;;;;;7.40;5.90;;;;;;;;;;5069617;28;20445;-77
2022/10/17 06:15:05;;;;;;;9.00;6.60;;;;;;;;;;5070178;28;20445;-77
2022/10/17 06:17:32;;;;;;;7.37;6.13;;;;;;;;;;5069721;28;20452;-78
2022/10/17 06:19:59;;;;;;;7.00;5.53;;;;;;;;;;5070208;28;20445;-76
2022/10/17 06:22:28;;;;;;;9.20;7.13;;;;;;;;;;5070302;28;20440;-78
2022/10/17 06:24:55;;;;;;;8.67;6.50;;;;;;;;;;5070000;28;20455;-77
2022/10/17 06:27:22;;;;;;;12.27;7.30;;;;;;;;;;5072295;28;20460;-76
2022/10/17 06:29:50;;;;;;;8.17;6.90;;;;;;;;;;5072098;28;20456;-76
2022/10/17 06:32:17;;;;;;;7.70;6.77;;;;;;;;;;5071021;28;20460;-78
2022/10/17 06:34:45;;;;;;;11.80;10.77;;;;;;;;;;5079361;28;20457;-76
2022/10/17 06:37:12;;;;;;;7.90;7.07;;;;;;;;;;5072802;28;20472;-78
2022/10/17 06:39:40;;;;;;;8.40;7.60;;;;;;;;;;5067744;28;20830;-77
2022/10/17 06:42:07;;;;;;;12.87;8.20;;;;;;;;;;5069864;28;20500;-78
2022/10/17 06:44:34;;;;;;;8.53;7.60;;;;;;;;;;5069481;28;20441;-77
2022/10/17 06:47:02;;;;;;;7.73;6.93;;;;;;;;;;5075377;28;20455;-76
2022/10/17 06:49:29;;;;;;;10.30;7.90;;;;;;;;;;5073476;28;21013;-77
2022/10/17 06:51:56;;;;;;;8.60;7.07;;;;;;;;;;5073146;28;20469;-77
2022/10/17 06:54:23;;;;;;;7.67;6.93;;;;;;;;;;5068948;28;20472;-77
2022/10/17 06:56:51;;;;;;;10.00;8.73;;;;;;;;;;5068570;28;20849;-77
2022/10/17 06:59:18;;;;;;;8.03;7.23;;;;;;;;;;5061699;28;20913;-77
2022/10/17 07:01:45;;;;;;;11.50;7.00;;;;;;;;;;5064103;28;20460;-77
2022/10/17 07:04:12;;;;;;;10.20;7.90;;;;;;;;;;5068638;28;20440;-77
2022/10/17 07:06:39;;;;;;;7.53;6.07;;;;;;;;;;5069274;28;20440;-77
2022/10/17 07:09:06;;;;;;;7.27;5.83;;;;;;;;;;5069351;28;20480;-77
2022/10/17 07:11:34;;;;;;;7.13;5.97;;;;;;;;;;5069690;28;20464;-77
2022/10/17 07:14:03;;;;;;;10.30;6.63;;;;;;;;;;5069058;28;20487;-77
2022/10/17 07:16:30;;;;;;;9.63;7.20;;;;;;;;;;5070083;28;20448;-77
2022/10/17 07:18:57;;;;;;;11.30;6.77;;;;;;;;;;5069434;28;20443;-77
2022/10/17 07:21:24;;;;;;;6.87;6.17;;;;;;;;;;5069609;28;20475;-77
2022/10/17 07:23:51;;;;;;;7.43;6.10;;;;;;;;;;5069213;28;20851;-78
2022/10/17 07:26:19;;;;;;;7.23;5.97;;;;;;;;;;5069567;28;20444;-76
2022/10/17 07:28:47;;;;;;;7.30;6.20;;;;;;;;;;5071912;28;20476;-77
2022/10/17 07:31:16;;;;;;;7.40;6.40;;;;;;;;;;5072828;28;20468;-76
2022/10/17 07:33:43;;;;;;;9.60;6.47;;;;;;;;;;5072211;28;20444;-77
2022/10/17 07:36:10;;;;;;;9.73;6.33;;;;;;;;;;5072880;28;20445;-77
2022/10/17 07:38:37;;;;;;;7.50;6.50;;;;;;;;;;5073107;28;20470;-77
2022/10/17 07:41:06;;;;;;;7.87;7.13;;;;;;;;;;5072933;28;20893;-78
2022/10/17 07:43:33;;;;;;;8.00;6.50;;;;;;;;;;5072386;28;20799;-77
2022/10/17 07:46:01;;;;;;;7.73;6.17;;;;;;;;;;5072845;28;20444;-76
2022/10/17 07:48:30;;;;;;;6.53;5.97;;;;;;;;;;5072399;28;20480;-78
2022/10/17 07:50:57;;;;;;;10.43;5.40;;;;;;;;;;5072643;28;20464;-77
2022/10/17 07:53:24;;;;;;;5.27;4.80;;;;;;;;;;5071891;28;20845;-77
2022/10/17 07:55:51;;;;;;;5.27;4.60;;;;;;;;;;5072777;28;20587;-78
2022/10/17 07:58:18;;;;;;;5.00;4.50;;;;;;;;;;5072896;28;20944;-76
2022/10/17 08:00:47;;;;;;;11.13;5.90;;;;;;;;;;5072880;28;20500;-76
2022/10/17 08:03:14;;;;;;;6.53;5.03;;;;;;;;;;5072858;28;20535;-77
2022/10/17 08:05:42;;;;;;;5.47;4.70;;;;;;;;;;5072921;28;20480;-77
2022/10/17 08:08:09;;;;;;;6.23;4.37;;;;;;;;;;5073000;28;20484;-77
2022/10/17 08:10:37;;;;;;;8.83;4.90;;;;;;;;;;5068749;28;20485;-77
2022/10/17 08:13:04;;;;;;;6.43;5.50;;;;;;;;;;5069415;28;20445;-76
2022/10/17 08:15:31;;;;;;;5.73;4.73;;;;;;;;;;5065950;28;20437;-76
2022/10/17 08:17:58;;;;;;;4.80;4.37;;;;;;;;;;5070839;28;21273;-77
2022/10/17 08:20:26;;;;;;;8.33;5.10;;;;;;;;;;5069183;28;20468;-78
2022/10/17 08:22:54;;;;;;;5.87;4.37;;;;;;;;;;5071829;28;20820;-76
2022/10/17 08:25:22;;;;;;;5.60;4.63;;;;;;;;;;5069603;28;20445;-77
2022/10/17 08:27:49;;;;;;;6.63;4.10;;;;;;;;;;5068790;28;20445;-77
2022/10/17 08:30:16;;;;;;;10.50;4.80;;;;;;;;;;5063903;28;20857;-76
2022/10/17 08:32:43;;;;;;;6.70;4.77;;;;;;;;;;5072786;28;20444;-77
2022/10/17 08:35:10;;;;;;;5.83;4.50;;;;;;;;;;5072332;28;20437;-77
2022/10/17 08:37:37;;;;;;;7.20;4.73;;;;;;;;;;5072254;28;20433;-78
2022/10/17 08:40:07;;;;;;;6.50;5.00;;;;;;;;;;5072193;28;20445;-76
2022/10/17 08:42:46;;;;;;;6.40;4.93;;;;;;;;;;5071985;28;20441;-77
2022/10/17 08:45:17;;;;;;;6.67;4.23;;;;;;;;;;5072556;28;20502;-77
2022/10/17 08:47:46;;;;;;;8.17;5.43;;;;;;;;;;5072414;28;20451;-77
2022/10/17 08:50:15;;;;;;;6.27;4.73;;;;;;;;;;5071916;28;20477;-77
2022/10/17 08:52:45;;;;;;;8.70;4.43;;;;;;;;;;5071570;28;20850;-77
2022/10/17 08:55:16;;;;;;;5.80;4.10;;;;;;;;;;5072725;28;20436;-77
2022/10/17 08:57:43;;;;;;;5.97;4.40;;;;;;;;;;5071985;28;20932;-77
2022/10/17 09:00:15;;;;;;;14.33;4.00;;;;;;;;;;5071693;28;20772;-78
2022/10/17 09:02:48;;;;;;;5.00;4.17;;;;;;;;;;5071506;28;20448;-77
2022/10/17 09:05:25;;;;;;;5.50;3.60;;;;;;;;;;5071902;28;20456;-76
2022/10/17 09:07:55;;;;;;;8.37;3.80;;;;;;;;;;5072268;28;20429;-77
2022/10/17 09:10:27;;;;;;;7.90;4.10;;;;;;;;;;5071374;28;20483;-78
2022/10/17 09:12:58;;;;;;;8.60;4.30;;;;;;;;;;5057283;28;20452;-77
2022/10/17 09:15:32;;;;;;;8.60;4.83;;;;;;;;;;5051880;28;20441;-77
2022/10/17 09:18:01;;;;;;;4.33;3.80;;;;;;;;;;5059508;28;20813;-77
2022/10/17 09:20:30;;;;;;;5.97;4.03;;;;;;;;;;5071131;28;20491;-77
2022/10/17 09:22:59;;;;;;;4.20;3.80;;;;;;;;;;5070541;28;20451;-77
2022/10/17 09:25:28;;;;;;;5.03;3.57;;;;;;;;;;5071275;28;20448;-77
2022/10/17 09:27:59;;;;;;;6.20;4.30;;;;;;;;;;5071212;28;20440;-76
2022/10/17 09:30:34;;;;;;;7.37;4.53;;;;;;;;;;5070908;28;20995;-76
2022/10/17 09:33:01;;;;;;;7.20;4.17;;;;;;;;;;5071044;28;20523;-77
2022/10/17 09:35:30;;;;;;;3.90;3.60;;;;;;;;;;5071265;28;20811;-76
2022/10/17 09:37:57;;;;;;;7.70;4.00;;;;;;;;;;5071037;28;20452;-75
2022/10/17 09:40:25;;;;;;;5.83;3.77;;;;;;;;;;5066065;28;20961;-78
2022/10/17 09:42:54;;;;;;;6.13;3.97;;;;;;;;;;5056245;28;20457;-78
2022/10/17 09:45:24;;;;;;;5.50;3.60;;;;;;;;;;5066418;28;20455;-77
2022/10/17 09:47:54;;;;;;;5.50;3.30;;;;;;;;;;5071351;28;20460;-77
2022/10/17 09:50:22;;;;;;;5.13;3.97;;;;;;;;;;5070925;28;20488;-78
2022/10/17 09:52:49;;;;;;;6.17;3.90;;;;;;;;;;5070618;28;20654;-78
2022/10/17 09:55:18;;;;;;;6.87;3.77;;;;;;;;;;5071265;28;20445;-77
2022/10/17 09:57:52;;;;;;;10.93;3.93;;;;;;;;;;5071703;28;20449;-78
2022/10/17 10:00:23;;;;;;;5.43;3.97;;;;;;;;;;5072540;28;20547;-79
2022/10/17 10:02:50;;;;;;;4.73;3.30;;;;;;;;;;5071292;28;20444;-77
2022/10/17 10:05:18;;;;;;;9.47;3.87;;;;;;;;;;5071800;28;20441;-78
2022/10/17 10:08:00;;;;;;;5.93;3.50;;;;;;;;;;5072569;28;20452;-77
2022/10/17 10:10:28;;;;;;;4.67;3.60;;;;;;;;;;5072069;28;20515;-77
2022/10/17 10:13:19;;;;;;;9.17;8.00;;;;;;;;;;5059117;28;20453;-78
2022/10/17 10:15:48;;;;;;;4.50;3.77;;;;;;;;;;5071321;28;20544;-78
2022/10/17 10:18:32;;;;;;;3.70;3.30;;;;;;;;;;5075532;28;20433;-77
2022/10/17 10:21:13;;;;;;;5.03;3.20;;;;;;;;;;5072873;28;20470;-77
2022/10/17 10:23:41;;;;;;;5.93;3.70;;;;;;;;;;5059248;28;20538;-78
2022/10/17 10:26:21;;;;;;;4.60;3.57;;;;;;;;;;5062804;28;20970;-79
2022/10/17 10:28:53;;;;;;;8.43;4.30;;;;;;;;;;5063149;28;20489;-76
2022/10/17 10:31:27;;;;;;;6.47;3.80;;;;;;;;;;5062922;28;20461;-79
2022/10/17 10:33:54;;;;;;;5.30;3.80;;;;;;;;;;5070773;28;20444;-78
2022/10/17 10:36:22;;;;;;;7.23;4.20;;;;;;;;;;5071625;28;20436;-77
2022/10/17 10:38:52;;;;;;;6.77;4.17;;;;;;;;;;5071323;28;20810;-77
2022/10/17 10:41:20;;;;;;;7.93;4.17;;;;;;;;;;5072076;28;20467;-78
2022/10/17 10:43:48;;;;;;;10.97;4.17;;;;;;;;;;5072667;28;20444;-77
2022/10/17 10:46:19;;;;;;;7.37;3.97;;;;;;;;;;5072207;28;20440;-77
2022/10/17 10:48:55;;;;;;;5.17;3.40;;;;;;;;;;5072643;28;20452;-78
2022/10/17 10:51:24;;;;;;;4.60;3.40;;;;;;;;;;5072817;28;20460;-78
2022/10/17 10:53:53;;;;;;;3.70;3.40;;;;;;;;;;5071235;28;20444;-77
2022/10/17 10:56:23;;;;;;;5.00;3.37;;;;;;;;;;5084645;28;20439;-77
2022/10/17 10:58:53;;;;;;;3.33;3.03;;;;;;;;;;5085588;28;20429;-77
2022/10/17 11:01:26;;;;;;;4.60;3.00;;;;;;;;;;5085078;28;20464;-79
2022/10/17 11:04:08;;;;;;;4.90;2.57;;;;;;;;;;5081533;28;20494;-78
2022/10/17 11:06:37;;;;;;;2.90;2.07;;;;;;;;;;5075756;28;20447;-78
2022/10/17 11:09:10;;;;;;;2.50;2.30;;;;;;;;;;5076070;28;20886;-77
2022/10/17 11:11:39;;;;;;;4.03;2.10;;;;;;;;;;5075641;28;20543;-77
2022/10/17 11:14:10;;;;;;;7.40;2.50;;;;;;;;;;5075893;28;20451;-77
2022/10/17 11:16:40;;;;;;;3.37;2.50;;;;;;;;;;5075236;28;20451;-76
2022/10/17 11:19:13;;;;;;;6.27;2.47;;;;;;;;;;5074490;28;20444;-76
2022/10/17 11:21:44;;;;;;;5.17;2.27;;;;;;;;;;5075768;28;20464;-78
2022/10/17 11:24:15;;;;;;;6.63;2.40;;;;;;;;;;5072566;28;20846;-76
2022/10/17 11:26:43;;;;;;;5.50;2.77;;;;;;;;;;5074427;28;20437;-77
2022/10/17 11:29:11;;;;;;;4.50;2.30;;;;;;;;;;5069561;28;20481;-76
2022/10/17 11:31:40;;;;;;;4.30;2.40;;;;;;;;;;5072614;28;20464;-77
2022/10/17 11:34:10;;;;;;;4.37;2.10;;;;;;;;;;5072238;28;20440;-77
2022/10/17 11:36:42;;;;;;;8.30;2.63;;;;;;;;;;5066361;28;20550;-76
2022/10/17 11:39:12;;;;;;;4.90;2.40;;;;;;;;;;5066598;28;20786;-78
2022/10/17 11:41:42;;;;;;;1.90;1.67;;;;;;;;;;5074156;28;20475;-77
2022/10/17 11:44:13;;;;;;;4.33;2.10;;;;;;;;;;5074090;28;20433;-78
2022/10/17 11:46:42;;;;;;;3.13;1.80;;;;;;;;;;5074904;28;20432;-77
2022/10/17 11:49:13;;;;;;;1.90;1.77;;;;;;;;;;5084155;28;20444;-77
2022/10/17 11:51:45;;;;;;;2.60;1.70;;;;;;;;;;5073698;28;20546;-77
2022/10/17 11:54:14;;;;;;;4.87;1.63;;;;;;;;;;5065409;28;20452;-77
2022/10/17 11:56:44;;;;;;;2.47;1.63;;;;;;;;;;5070915;28;20436;-77
2022/10/17 11:59:25;;;;;;;2.17;1.70;;;;;;;;;;5072800;28;20433;-76
2022/10/17 12:01:54;;;;;;;3.70;1.83;;;;;;;;;;5067307;28;20473;-77
2022/10/17 12:04:25;;;;;;;2.07;1.87;;;;;;;;;;5062533;28;20461;-78
2022/10/17 12:07:00;;;;;;;1.90;1.77;;;;;;;;;;5071115;28;20447;-77
2022/10/17 12:09:32;;;;;;;4.13;1.60;;;;;;;;;;5061607;28;20476;-77
2022/10/17 12:12:00;;;;;;;2.30;2.03;;;;;;;;;;5068021;28;20464;-77
2022/10/17 12:14:41;;;;;;;3.80;1.97;;;;;;;;;;5072082;28;20436;-77
2022/10/17 12:17:23;;;;;;;2.30;1.90;;;;;;;;;;5073908;28;20451;-76
2022/10/17 12:19:50;;;;;;;3.67;2.00;;;;;;;;;;5074023;28;20441;-77
2022/10/17 12:22:26;;;;;;;2.27;1.70;;;;;;;;;;5074714;28;20464;-77
2022/10/17 12:25:10;;;;;;;3.33;2.00;;;;;;;;;;5073075;28;20452;-77
2022/10/17 12:27:42;;;;;;;3.40;1.60;;;;;;;;;;5073747;28;20444;-77
2022/10/17 12:30:17;;;;;;;5.20;2.43;;;;;;;;;;5073791;28;20572;-78
2022/10/17 12:32:54;;;;;;;4.37;2.13;;;;;;;;;;5072870;28;20448;-77
2022/10/17 12:35:22;;;;;;;2.43;1.63;;;;;;;;;;5072934;28;20439;-77
2022/10/17 12:38:07;;;;;;;3.87;2.07;;;;;;;;;;5070931;28;20447;-77
2022/10/17 12:40:53;;;;;;;3.27;2.00;;;;;;;;;;5061542;28;20468;-77
2022/10/17 12:43:35;;;;;;;2.40;1.80;;;;;;;;;;5061763;28;20444;-77
2022/10/17 12:46:04;;;;;;;3.87;1.70;;;;;;;;;;5048379;28;20485;-76
2022/10/17 12:48:49;;;;;;;2.07;1.97;;;;;;;;;;5064030;28;20650;-76
2022/10/17 12:51:17;;;;;;;1.73;1.63;;;;;;;;;;5071766;28;20986;-76
2022/10/17 12:53:49;;;;;;;2.97;1.90;;;;;;;;;;5071366;28;20448;-77
2022/10/17 12:56:17;;;;;;;2.03;1.83;;;;;;;;;;5066375;28;20944;-78
2022/10/17 12:58:45;;;;;;;4.83;1.60;;;;;;;;;;5066634;28;20496;-78
2022/10/17 13:01:17;;;;;;;4.20;1.70;;;;;;;;;;5070781;28;20816;-76
2022/10/17 13:03:47;;;;;;;2.10;1.77;;;;;;;;;;5070712;28;20759;-77
2022/10/17 13:06:16;;;;;;;3.27;2.30;;;;;;;;;;5073873;28;20443;-79
2022/10/17 13:08:44;;;;;;;2.80;1.77;;;;;;;;;;5073192;28;20451;-79
2022/10/17 13:11:12;;;;;;;2.03;1.87;;;;;;;;;;5071583;28;20484;-78
2022/10/17 13:13:43;;;;;;;2.33;2.13;;;;;;;;;;5052239;28;20452;-80
2022/10/17 13:16:10;;;;;;;3.40;2.17;;;;;;;;;;5051900;28;20837;-77
2022/10/17 13:18:38;;;;;;;2.87;2.40;;;;;;;;;;5052381;28;20466;-77
2022/10/17 13:21:06;;;;;;;5.37;2.93;;;;;;;;;;5050682;28;20484;-77
2022/10/17 13:23:35;;;;;;;5.33;2.27;;;;;;;;;;5050218;28;20930;-78
2022/10/17 13:26:06;;;;;;;8.07;2.73;;;;;;;;;;5051832;28;20488;-76
2022/10/17 13:28:33;;;;;;;3.27;3.07;;;;;;;;;;5050970;28;20441;-76
2022/10/17 13:31:01;;;;;;;5.00;2.30;;;;;;;;;;5050636;28;20501;-77
2022/10/17 13:33:36;;;;;;;2.83;2.63;;;;;;;;;;5050643;28;20517;-78
2022/10/17 13:36:07;;;;;;;2.83;2.63;;;;;;;;;;5050576;28;20441;-77
2022/10/17 13:38:35;;;;;;;3.43;2.47;;;;;;;;;;5050015;28;20445;-77
2022/10/17 13:41:03;;;;;;;4.60;2.70;;;;;;;;;;5051041;28;20927;-77
2022/10/17 13:43:32;;;;;;;3.07;2.40;;;;;;;;;;5050569;28;20453;-77
2022/10/17 13:46:04;;;;;;;3.00;2.70;;;;;;;;;;5049909;28;20498;-76
2022/10/17 13:48:32;;;;;;;3.33;2.57;;;;;;;;;;5067809;28;20456;-76
2022/10/17 13:51:00;;;;;;;2.37;2.17;;;;;;;;;;5070037;28;21043;-77
2022/10/17 13:53:31;;;;;;;4.00;2.80;;;;;;;;;;5070267;28;20449;-76
2022/10/17 13:56:00;;;;;;;5.70;2.27;;;;;;;;;;5071895;28;20430;-77
2022/10/17 13:58:30;;;;;;;4.77;2.10;;;;;;;;;;5062322;28;20453;-74
2022/10/17 14:00:57;;;;;;;4.40;2.23;;;;;;;;;;5073376;28;20484;-76
2022/10/17 14:03:24;;;;;;;3.60;2.20;;;;;;;;;;5070605;28;20452;-79
2022/10/17 14:06:15;;;;;;;4.53;2.00;;;;;;;;;;5073697;28;20441;-76
2022/10/17 14:08:52;;;;;;;3.30;2.00;;;;;;;;;;5052111;28;20447;-78
2022/10/17 14:11:24;;;;;;;3.63;2.30;;;;;;;;;;5073419;28;20494;-77
2022/10/17 14:13:52;;;;;;;2.70;2.50;;;;;;;;;;5072124;28;20469;-77
2022/10/17 14:16:19;;;;;;;4.43;2.07;;;;;;;;;;5072292;28;20448;-78
2022/10/17 14:18:48;;;;;;;2.63;1.97;;;;;;;;;;5072125;28;20449;-77
2022/10/17 14:21:19;;;;;;;2.43;2.23;;;;;;;;;;5069377;28;20517;-76
2022/10/17 14:23:46;;;;;;;4.53;2.13;;;;;;;;;;5068890;28;20484;-77
2022/10/17 14:26:16;;;;;;;5.27;2.27;;;;;;;;;;5069601;28;20447;-77
2022/10/17 14:28:43;;;;;;;2.13;2.00;;;;;;;;;;5069408;28;20951;-77
2022/10/17 14:31:20;;;;;;;5.20;2.57;;;;;;;;;;5069984;28;20484;-76
2022/10/17 14:33:48;;;;;;;4.40;2.30;;;;;;;;;;5068986;28;20428;-77
2022/10/17 14:36:16;;;;;;;5.50;2.20;;;;;;;;;;5069477;28;20455;-76
2022/10/17 14:38:46;;;;;;;2.77;1.93;;;;;;;;;;5072019;28;20449;-77
2022/10/17 14:41:17;;;;;;;2.77;2.10;;;;;;;;;;5073461;28;21054;-77
2022/10/17 14:43:45;;;;;;;2.60;2.40;;;;;;;;;;5073289;28;20433;-77
2022/10/17 14:46:15;;;;;;;3.20;2.30;;;;;;;;;;5073518;28;20447;-77
2022/10/17 14:48:42;;;;;;;5.43;2.97;;;;;;;;;;5072969;28;20601;-77
2022/10/17 14:51:11;;;;;;;5.83;2.47;;;;;;;;;;5073192;28;20503;-77
2022/10/17 14:53:38;;;;;;;2.83;2.57;;;;;;;;;;5072556;28;20452;-76
2022/10/17 14:56:07;;;;;;;2.93;2.10;;;;;;;;;;5073663;28;20456;-77